LROP/OTP METAR and TAF weather

Enter ICAO airport designator
Station Type Date Time Source
LROP METAR 2020/11/28 20:30 UTC NOAA

LROP 282030Z 04004KT 0350 R08R/0750N R26L/0750N FZFG VV002 M00/M00 Q1019 NOSIG


Station Type Date Time Source
LROP Decoded METAR 2020/11/28 20:30 UTC NOAA

Bucuresti Otopeni, Romania (LROP) 44-33N 026-06E 95M
Nov 28, 2020 - 03:30 PM EST / 2020.11.28 2030 UTC
Wind: from the NE (040 degrees) at 5 MPH (4 KT):0
Visibility: less than 1 mile:0
Sky conditions: obscured
Weather: freezing fog
Temperature: 32 F (0 C)
Windchill: 26 F (-3 C):1
Dew Point: 32 F (0 C)
Relative Humidity: 100%
Pressure (altimeter): 30.09 in. Hg (1019 hPa)
ob: LROP 282030Z 04004KT 0350 R08R/0750N R26L/0750N FZFG VV002 M00/M00 Q1019 NOSIG
cycle: 20

Station Type Date Time Source
LROP TAF 2020/11/28 18:33 UTC NOAA

TAF LROP 281700Z 2818/2918 05004KT 1500 BR OVC002
BECMG 2818/2820 0800 FZFG OVC001
BECMG 2822/2900 0350 FZFG PROB40
TEMPO 2900/2906 0150 FZFG
BECMG 2907/2909 0800 OVC002
BECMG 2909/2911 1500 BR BKN005
TEMPO 2911/2915 3000 BKN010

Example: see airport list